Time;durP1;ratioP1;P1;durP2;ratioP2;P2;SDS_P1;SDS_P2;PMS_P1;PMS_P2;Temp;Humidity;BMP_temperature;BMP_pressure;BME280_temperature;BME280_humidity;BME280_pressure;Samples;Min_cycle;Max_cycle;Signal;HPM_P1;HPM_P2
2023/01/10 00:01:24;;;;;;;10.13;8.70;;;10.00;99.90;;;;;;5034521;28;20466;-72
2023/01/10 00:03:50;;;;;;;14.50;8.67;;;10.00;99.90;;;;;;5040566;28;20544;-71
2023/01/10 00:06:16;;;;;;;11.57;8.27;;;9.90;99.90;;;;;;5052684;28;20506;-72
2023/01/10 00:08:41;;;;;;;13.03;9.00;;;9.90;99.90;;;;;;5034327;28;20179;-72
2023/01/10 00:13:52;;;;;;;13.63;8.90;;;10.00;99.90;;;;;;5037968;28;20218;-71
2023/01/10 00:16:18;;;;;;;10.23;7.77;;;9.90;99.90;;;;;;5053169;28;20448;-71
2023/01/10 00:18:44;;;;;;;10.57;8.80;;;9.90;99.90;;;;;;5053973;28;20872;-71
2023/01/10 00:21:10;;;;;;;13.37;8.67;;;9.90;99.90;;;;;;5053097;28;20889;-72
2023/01/10 00:23:35;;;;;;;11.10;8.60;;;9.90;99.90;;;;;;5052096;28;20179;-71
2023/01/10 00:26:01;;;;;;;12.73;8.97;;;9.90;99.90;;;;;;5052555;28;20178;-72
2023/01/10 00:28:27;;;;;;;8.80;7.80;;;9.90;99.90;;;;;;5053751;28;20183;-71
2023/01/10 00:31:00;;;;;;;11.50;7.87;;;9.90;99.90;;;;;;5053777;28;20205;-71
2023/01/10 00:33:30;;;;;;;9.90;8.50;;;9.90;99.90;;;;;;5052603;28;20990;-72
2023/01/10 00:35:57;;;;;;;15.00;8.90;;;9.80;99.90;;;;;;5053450;28;20410;-71
2023/01/10 00:38:22;;;;;;;12.40;8.93;;;9.80;99.90;;;;;;5052908;28;20417;-71
2023/01/10 00:40:48;;;;;;;13.43;9.07;;;9.80;99.90;;;;;;5053370;28;20564;-71
2023/01/10 00:45:58;;;;;;;11.43;8.30;;;9.80;99.90;;;;;;5052187;28;20184;-72
2023/01/10 00:48:24;;;;;;;12.90;8.37;;;9.80;99.90;;;;;;5051362;28;20843;-71
2023/01/10 00:50:50;;;;;;;11.87;8.27;;;9.80;99.90;;;;;;5050790;28;20657;-71
2023/01/10 00:53:16;;;;;;;9.03;8.23;;;9.80;99.90;;;;;;5053072;28;20413;-71
2023/01/10 00:55:43;;;;;;;10.63;8.33;;;9.90;99.90;;;;;;5052429;28;20839;-71
2023/01/10 00:58:10;;;;;;;8.90;7.30;;;9.90;99.90;;;;;;5052811;28;20178;-71
2023/01/10 01:00:41;;;;;;;8.60;7.73;;;10.00;99.90;;;;;;5053244;28;20425;-72
2023/01/10 01:03:07;;;;;;;8.40;6.87;;;9.90;99.90;;;;;;5052600;28;20397;-71
2023/01/10 01:05:38;;;;;;;10.30;8.00;;;9.90;99.90;;;;;;5052863;28;20508;-71
2023/01/10 01:08:04;;;;;;;8.57;6.93;;;9.90;99.90;;;;;;5051483;28;20955;-71
2023/01/10 01:10:29;;;;;;;8.40;7.00;;;9.90;99.90;;;;;;5052562;28;20422;-72
2023/01/10 01:13:05;;;;;;;10.40;7.13;;;9.90;99.90;;;;;;5053017;28;20234;-72
2023/01/10 01:15:33;;;;;;;12.03;6.93;;;9.90;99.90;;;;;;5053319;28;20460;-71
2023/01/10 01:17:59;;;;;;;8.13;6.87;;;10.00;99.90;;;;;;5052991;28;20447;-71
2023/01/10 01:20:24;;;;;;;7.83;6.90;;;9.90;99.90;;;;;;5051064;28;20461;-72
2023/01/10 01:22:50;;;;;;;11.33;7.30;;;9.90;99.90;;;;;;5053136;28;20540;-72
2023/01/10 01:25:16;;;;;;;9.80;6.77;;;9.90;99.90;;;;;;5052602;28;20200;-72
2023/01/10 01:27:41;;;;;;;9.17;7.13;;;9.90;99.90;;;;;;5051839;28;20186;-71
2023/01/10 01:30:09;;;;;;;11.63;7.50;;;9.80;99.90;;;;;;5051598;28;20174;-71
2023/01/10 01:32:35;;;;;;;6.77;6.07;;;9.90;99.90;;;;;;5052644;28;20550;-72
2023/01/10 01:35:00;;;;;;;10.93;6.53;;;9.90;99.90;;;;;;5052745;28;20477;-72
2023/01/10 01:37:26;;;;;;;9.70;6.70;;;9.90;99.90;;;;;;5052109;28;20176;-71
2023/01/10 01:39:52;;;;;;;13.70;6.47;;;9.90;99.90;;;;;;5051549;28;20261;-72
2023/01/10 01:42:29;;;;;;;9.93;6.80;;;9.90;99.90;;;;;;5052384;28;20186;-71
2023/01/10 01:45:07;;;;;;;9.60;6.03;;;9.90;99.90;;;;;;5051951;28;20266;-72
2023/01/10 01:47:39;;;;;;;9.50;7.20;;;9.90;99.90;;;;;;5051514;28;20432;-72
2023/01/10 01:50:12;;;;;;;9.67;6.43;;;9.90;99.90;;;;;;5048520;28;20439;-71
2023/01/10 01:52:38;;;;;;;8.77;6.90;;;9.80;99.90;;;;;;5048125;28;20484;-71
2023/01/10 01:55:05;;;;;;;7.70;6.60;;;9.80;99.90;;;;;;5047524;28;20432;-75
2023/01/10 01:57:32;;;;;;;10.60;6.03;;;9.80;99.90;;;;;;5052527;28;20444;-71
2023/01/10 02:00:01;;;;;;;12.90;6.90;;;9.70;99.90;;;;;;5050955;28;20455;-71
2023/01/10 02:02:34;;;;;;;8.10;6.10;;;9.80;99.90;;;;;;5051785;28;20429;-71
2023/01/10 02:05:09;;;;;;;11.60;7.03;;;9.80;99.90;;;;;;5052437;28;20759;-72
2023/01/10 02:07:37;;;;;;;10.17;5.97;;;9.80;99.90;;;;;;5051368;28;20787;-71
2023/01/10 02:10:08;;;;;;;8.83;6.50;;;9.80;99.90;;;;;;5052588;28;20429;-72
2023/01/10 02:12:34;;;;;;;6.40;5.80;;;9.80;99.90;;;;;;5051509;28;20549;-72
2023/01/10 02:15:01;;;;;;;9.73;5.80;;;9.70;99.90;;;;;;5052389;28;20453;-71
2023/01/10 02:17:27;;;;;;;13.27;5.80;;;9.70;99.90;;;;;;5051419;28;20466;-71
2023/01/10 02:20:05;;;;;;;8.23;5.70;;;9.80;99.90;;;;;;5052208;28;20811;-71
2023/01/10 02:22:51;;;;;;;15.97;6.67;;;9.80;99.90;;;;;;5046769;28;20324;-72
2023/01/10 02:25:25;;;;;;;9.10;5.70;;;9.80;99.90;;;;;;5051930;28;20783;-71
2023/01/10 02:28:37;;;;;;;8.83;5.13;;;9.80;99.90;;;;;;5049238;28;20467;-71
2023/01/10 02:31:25;;;;;;;7.30;6.23;;;9.80;99.90;;;;;;5051538;28;20472;-77
2023/01/10 02:34:12;;;;;;;6.13;5.63;;;9.80;99.90;;;;;;5051894;28;20916;-71
2023/01/10 02:36:50;;;;;;;8.07;5.47;;;9.70;99.90;;;;;;5051753;28;20439;-71
2023/01/10 02:39:57;;;;;;;6.60;5.30;;;9.70;99.90;;;;;;5051287;28;20430;-71
2023/01/10 02:42:31;;;;;;;8.00;5.60;;;9.70;99.90;;;;;;5051935;28;20944;-72
2023/01/10 02:45:15;;;;;;;10.37;5.50;;;9.70;99.90;;;;;;5055856;28;20457;-71
2023/01/10 02:47:41;;;;;;;7.33;4.87;;;9.60;99.90;;;;;;5055657;28;20400;-71
2023/01/10 02:50:39;;;;;;;6.27;4.97;;;9.60;99.90;;;;;;5054417;28;20416;-77
2023/01/10 02:53:36;;;;;;;9.27;6.23;;;9.60;99.90;;;;;;5035614;28;20247;-71
2023/01/10 02:56:17;;;;;;;6.60;5.20;;;9.60;99.90;;;;;;5054262;28;20996;-73
2023/01/10 02:59:19;;;;;;;8.40;5.73;;;9.60;99.90;;;;;;5035463;28;20738;-71
2023/01/10 03:01:59;;;;;;;6.47;5.23;;;9.60;99.90;;;;;;5035430;28;20489;-72
2023/01/10 03:04:44;;;;;;;8.27;5.47;;;9.60;99.90;;;;;;5051254;28;20916;-72
2023/01/10 03:07:31;;;;;;;6.40;4.90;;;9.60;99.90;;;;;;5050686;28;20924;-72
2023/01/10 03:09:59;;;;;;;7.77;4.60;;;9.60;99.90;;;;;;5055651;28;20427;-72
2023/01/10 03:12:46;;;;;;;6.77;4.50;;;9.60;99.90;;;;;;5054689;28;20554;-72
2023/01/10 03:15:16;;;;;;;6.60;4.73;;;9.60;99.90;;;;;;5053469;28;21018;-71
2023/01/10 03:17:46;;;;;;;5.63;4.70;;;9.60;99.90;;;;;;5048954;28;20795;-71
2023/01/10 03:20:11;;;;;;;7.83;4.80;;;9.60;99.90;;;;;;5054530;28;20892;-71
2023/01/10 03:22:39;;;;;;;9.73;4.90;;;9.60;99.90;;;;;;5053988;28;20448;-71
2023/01/10 03:25:09;;;;;;;4.83;4.30;;;9.60;99.90;;;;;;5055046;28;20217;-71
2023/01/10 03:27:37;;;;;;;6.30;4.80;;;9.60;99.90;;;;;;5054962;28;20932;-71
2023/01/10 03:30:06;;;;;;;5.33;4.13;;;9.60;99.90;;;;;;5055025;28;20768;-70
2023/01/10 03:32:32;;;;;;;7.50;4.30;;;9.60;99.90;;;;;;5054353;28;20456;-71
2023/01/10 03:35:00;;;;;;;8.10;4.43;;;9.60;99.90;;;;;;5053875;28;20506;-71
2023/01/10 03:37:48;;;;;;;8.13;4.30;;;9.60;99.90;;;;;;5054262;28;20770;-71
2023/01/10 03:40:27;;;;;;;7.70;4.30;;;9.50;99.90;;;;;;5053899;28;20479;-71
2023/01/10 03:46:16;;;;;;;6.90;4.40;;;9.50;99.90;;;;;;5051999;28;20499;-71
2023/01/10 03:48:45;;;;;;;10.70;4.20;;;9.50;99.90;;;;;;5052715;28;20470;-71
2023/01/10 03:51:12;;;;;;;12.03;4.53;;;9.50;99.90;;;;;;5052906;28;20785;-75
2023/01/10 03:53:38;;;;;;;5.70;5.03;;;9.50;99.90;;;;;;5051026;28;20426;-71
2023/01/10 03:56:05;;;;;;;7.90;4.77;;;9.50;99.90;;;;;;5053634;28;20521;-71
2023/01/10 03:58:31;;;;;;;11.17;5.63;;;9.40;99.90;;;;;;5053887;28;20826;-71
2023/01/10 04:00:57;;;;;;;7.50;4.83;;;9.50;99.90;;;;;;5054408;28;20909;-72
2023/01/10 04:03:23;;;;;;;5.93;5.00;;;9.40;99.90;;;;;;5048387;28;20431;-71
2023/01/10 04:05:49;;;;;;;7.93;5.60;;;9.40;99.90;;;;;;5050345;28;20206;-71
2023/01/10 04:08:15;;;;;;;7.70;5.20;;;9.50;99.90;;;;;;5053663;28;20184;-72
2023/01/10 04:10:41;;;;;;;9.97;5.97;;;9.50;99.90;;;;;;5054004;28;20555;-71
2023/01/10 04:13:06;;;;;;;8.60;6.03;;;9.40;99.90;;;;;;5054113;28;20174;-72
2023/01/10 04:15:32;;;;;;;6.80;5.77;;;9.40;99.90;;;;;;5053326;28;20224;-72
2023/01/10 04:17:58;;;;;;;11.73;6.50;;;9.40;99.90;;;;;;5054082;28;20174;-72
2023/01/10 04:20:26;;;;;;;8.17;6.10;;;9.40;99.90;;;;;;5053387;28;20185;-72
2023/01/10 04:22:53;;;;;;;10.07;6.47;;;9.30;99.90;;;;;;5047025;28;20534;-72
2023/01/10 04:25:22;;;;;;;11.57;6.13;;;9.30;99.90;;;;;;5033222;28;20751;-72
2023/01/10 04:27:49;;;;;;;8.57;5.83;;;9.40;99.90;;;;;;5033856;28;20451;-72
2023/01/10 04:30:16;;;;;;;8.43;6.33;;;9.40;99.90;;;;;;5033220;28;20413;-72
2023/01/10 04:32:42;;;;;;;9.60;6.10;;;9.40;99.90;;;;;;5039115;28;20562;-71
2023/01/10 04:35:08;;;;;;;6.90;5.90;;;9.40;99.90;;;;;;5053697;28;20888;-71
2023/01/10 04:37:34;;;;;;;10.20;6.50;;;9.40;99.90;;;;;;5053110;28;20190;-71
2023/01/10 04:39:59;;;;;;;6.97;5.17;;;9.50;99.90;;;;;;5053430;28;20509;-72
2023/01/10 04:42:25;;;;;;;8.50;7.70;;;9.50;99.90;;;;;;5050654;28;20183;-72
2023/01/10 04:44:51;;;;;;;8.33;6.83;;;9.50;99.90;;;;;;5053504;28;20170;-72
2023/01/10 04:47:17;;;;;;;9.27;6.07;;;9.50;99.90;;;;;;5052699;28;20416;-72
2023/01/10 04:49:42;;;;;;;6.47;5.87;;;9.40;99.90;;;;;;5053497;28;20180;-72
2023/01/10 04:52:09;;;;;;;10.73;5.40;;;9.50;99.90;;;;;;5052892;28;20263;-72
2023/01/10 04:54:35;;;;;;;5.17;4.67;;;9.50;99.90;;;;;;5051693;28;20186;-72
2023/01/10 04:57:00;;;;;;;7.63;6.83;;;9.50;99.90;;;;;;5052856;28;20408;-72
2023/01/10 04:59:26;;;;;;;7.43;6.83;;;9.40;99.90;;;;;;5049712;28;20235;-72
2023/01/10 05:01:52;;;;;;;12.77;6.10;;;9.40;99.90;;;;;;5051532;28;20173;-72
2023/01/10 05:04:18;;;;;;;4.73;4.33;;;9.40;99.90;;;;;;5050162;28;20212;-71
2023/01/10 05:06:43;;;;;;;9.93;4.83;;;9.40;99.90;;;;;;5051741;28;20178;-71
2023/01/10 05:09:09;;;;;;;6.70;5.80;;;9.30;99.90;;;;;;5052590;28;20177;-71
2023/01/10 05:11:35;;;;;;;5.80;4.33;;;9.40;99.90;;;;;;5051110;28;20218;-72
2023/01/10 05:14:00;;;;;;;6.30;3.97;;;9.50;99.90;;;;;;5052803;28;20186;-72
2023/01/10 05:16:27;;;;;;;8.33;5.10;;;9.50;99.90;;;;;;5052402;28;20174;-72
2023/01/10 05:18:53;;;;;;;6.37;5.83;;;9.40;99.90;;;;;;5053075;28;20178;-72
2023/01/10 05:21:18;;;;;;;9.67;4.60;;;9.40;99.90;;;;;;5052536;28;20415;-72
2023/01/10 05:23:47;;;;;;;6.97;4.00;;;9.50;99.90;;;;;;5051999;28;20254;-71
2023/01/10 05:26:16;;;;;;;6.30;4.63;;;9.50;99.90;;;;;;5050463;28;20657;-71
2023/01/10 05:28:42;;;;;;;6.63;4.43;;;9.50;99.90;;;;;;5052978;28;20904;-71
2023/01/10 05:31:14;;;;;;;8.37;4.57;;;9.40;99.90;;;;;;5052706;28;20550;-71
2023/01/10 05:33:47;;;;;;;9.03;4.77;;;9.40;99.90;;;;;;5049198;28;20509;-71
2023/01/10 05:36:13;;;;;;;8.47;5.77;;;9.40;99.90;;;;;;5051834;28;20428;-72
2023/01/10 05:38:39;;;;;;;7.70;5.57;;;9.40;99.90;;;;;;5051988;28;20514;-73
2023/01/10 05:41:05;;;;;;;12.70;5.73;;;9.30;99.90;;;;;;5050834;28;20472;-73
2023/01/10 05:43:31;;;;;;;10.87;5.60;;;9.40;99.90;;;;;;5050729;28;20442;-73
2023/01/10 05:45:57;;;;;;;7.40;5.00;;;9.30;99.90;;;;;;5043828;28;20463;-73
2023/01/10 05:48:23;;;;;;;8.83;5.40;;;9.30;99.90;;;;;;5052208;28;20423;-73
2023/01/10 05:50:50;;;;;;;10.73;4.83;;;9.40;99.90;;;;;;5049065;28;20247;-71
2023/01/10 05:53:16;;;;;;;7.80;7.10;;;9.40;99.90;;;;;;5046226;28;20424;-71
2023/01/10 05:55:42;;;;;;;7.60;5.93;;;9.40;99.90;;;;;;5058672;28;20425;-71
2023/01/10 05:58:10;;;;;;;9.43;5.00;;;9.40;99.90;;;;;;5052282;28;20469;-73
2023/01/10 06:00:36;;;;;;;6.77;6.20;;;9.40;99.90;;;;;;5049702;28;20421;-73
2023/01/10 06:03:02;;;;;;;10.30;6.20;;;9.40;99.90;;;;;;5049201;28;20429;-71
2023/01/10 06:05:31;;;;;;;13.97;5.73;;;9.40;99.90;;;;;;5042595;28;20429;-71
2023/01/10 06:07:56;;;;;;;5.27;4.77;;;9.30;99.90;;;;;;5043536;28;20452;-70
2023/01/10 06:10:22;;;;;;;9.30;7.33;;;9.30;99.90;;;;;;5051903;28;20768;-68
2023/01/10 06:12:48;;;;;;;8.60;6.33;;;9.40;99.90;;;;;;5052191;28;20220;-71
2023/01/10 06:15:14;;;;;;;10.13;8.13;;;9.30;99.90;;;;;;5052505;28;20178;-72
2023/01/10 06:17:40;;;;;;;8.80;4.30;;;9.40;99.90;;;;;;5054426;28;20831;-72
2023/01/10 06:20:06;;;;;;;8.73;4.87;;;9.50;99.90;;;;;;5055662;28;20171;-71
2023/01/10 06:22:31;;;;;;;8.00;6.13;;;9.50;99.90;;;;;;5055191;28;20185;-71
2023/01/10 06:24:57;;;;;;;10.23;6.80;;;9.50;99.90;;;;;;5056510;28;20420;-71
2023/01/10 06:27:23;;;;;;;11.30;6.27;;;9.50;99.90;;;;;;5055721;28;20174;-72
2023/01/10 06:29:48;;;;;;;9.00;6.50;;;9.60;99.90;;;;;;5055928;28;20213;-71
2023/01/10 06:32:14;;;;;;;11.90;6.80;;;9.50;99.90;;;;;;5054725;28;20205;-72
2023/01/10 06:34:40;;;;;;;11.63;6.50;;;9.40;99.90;;;;;;5055445;28;20396;-72
2023/01/10 06:37:07;;;;;;;9.53;7.00;;;9.40;99.90;;;;;;5055639;28;20170;-74
2023/01/10 06:39:33;;;;;;;12.27;6.87;;;9.40;99.90;;;;;;5053478;28;20265;-72
2023/01/10 06:41:59;;;;;;;20.80;8.37;;;9.50;99.90;;;;;;5054899;28;20531;-72
2023/01/10 06:44:25;;;;;;;9.13;7.07;;;9.50;99.90;;;;;;5055279;28;20187;-71
2023/01/10 06:46:51;;;;;;;13.83;8.13;;;9.40;99.90;;;;;;5055726;28;20491;-72
2023/01/10 06:49:17;;;;;;;8.67;7.77;;;9.50;99.90;;;;;;5055529;28;20519;-72
2023/01/10 06:51:43;;;;;;;11.67;6.60;;;9.40;99.90;;;;;;5053829;28;20210;-72
2023/01/10 06:54:08;;;;;;;11.13;8.80;;;9.30;99.90;;;;;;5055213;28;20186;-72
2023/01/10 06:56:34;;;;;;;11.70;9.07;;;9.30;99.90;;;;;;5054189;28;20260;-72
2023/01/10 06:59:05;;;;;;;12.23;10.93;;;9.30;99.90;;;;;;5052233;28;20280;-72
2023/01/10 07:01:30;;;;;;;15.83;7.37;;;9.30;99.90;;;;;;5054073;28;20560;-72
2023/01/10 07:03:56;;;;;;;15.30;8.30;;;9.40;99.90;;;;;;5055831;28;20413;-73
2023/01/10 07:06:22;;;;;;;13.77;9.80;;;9.40;99.90;;;;;;5055225;28;20174;-75
2023/01/10 07:08:48;;;;;;;13.03;7.60;;;9.40;99.90;;;;;;5055199;28;20182;-70
2023/01/10 07:11:15;;;;;;;9.17;7.93;;;9.40;99.90;;;;;;5064043;28;20209;-72
2023/01/10 07:13:41;;;;;;;13.63;7.47;;;9.50;99.90;;;;;;5062955;28;20227;-72
2023/01/10 07:16:09;;;;;;;12.17;8.40;;;9.50;99.90;;;;;;5057037;28;20401;-72
2023/01/10 07:18:37;;;;;;;13.80;8.30;;;9.50;99.90;;;;;;5052585;28;20408;-72
2023/01/10 07:21:03;;;;;;;9.37;7.37;;;9.60;99.90;;;;;;5055138;28;20405;-72
2023/01/10 07:23:30;;;;;;;16.67;6.60;;;9.40;99.90;;;;;;5054514;28;20420;-71
2023/01/10 07:25:56;;;;;;;14.43;8.33;;;9.40;99.90;;;;;;5054834;28;20445;-71
2023/01/10 07:28:23;;;;;;;14.40;8.23;;;9.40;99.90;;;;;;5054504;28;20846;-71
2023/01/10 07:30:49;;;;;;;12.30;8.63;;;9.40;99.90;;;;;;5054851;28;20461;-71
2023/01/10 07:33:15;;;;;;;11.73;7.57;;;9.50;99.90;;;;;;5054065;28;20523;-71
2023/01/10 07:35:40;;;;;;;13.30;6.77;;;9.40;99.90;;;;;;5052366;28;20189;-71
2023/01/10 07:38:07;;;;;;;15.17;8.20;;;9.50;99.90;;;;;;5054581;28;20181;-71
2023/01/10 07:40:33;;;;;;;13.00;8.03;;;9.50;99.90;;;;;;5053720;28;20218;-72
2023/01/10 07:43:00;;;;;;;12.50;7.20;;;9.40;99.90;;;;;;5054696;28;20472;-72
2023/01/10 07:45:28;;;;;;;13.80;7.87;;;9.40;99.90;;;;;;5053783;28;20167;-73
2023/01/10 07:47:58;;;;;;;15.23;7.20;;;9.40;99.90;;;;;;5055225;28;20413;-72
2023/01/10 07:50:26;;;;;;;11.90;7.73;;;9.40;99.90;;;;;;5069715;28;20412;-76
2023/01/10 07:52:51;;;;;;;14.73;8.90;;;9.40;99.90;;;;;;5054025;28;20464;-72
2023/01/10 07:55:17;;;;;;;14.20;7.97;;;9.40;99.90;;;;;;5053274;28;20904;-72
2023/01/10 07:57:43;;;;;;;15.90;8.80;;;9.50;99.90;;;;;;5051673;28;20212;-72
2023/01/10 08:00:10;;;;;;;21.37;8.50;;;9.60;99.90;;;;;;5054361;28;20405;-72
2023/01/10 08:02:36;;;;;;;13.93;7.20;;;9.60;99.90;;;;;;5053802;28;20428;-73
2023/01/10 08:05:02;;;;;;;12.27;7.57;;;9.60;99.90;;;;;;5051431;28;20420;-72
2023/01/10 08:07:29;;;;;;;13.70;8.40;;;9.60;99.90;;;;;;5050200;28;20178;-72
2023/01/10 08:09:54;;;;;;;11.63;8.13;;;9.60;99.90;;;;;;5037685;28;20438;-73
2023/01/10 08:12:20;;;;;;;17.70;8.30;;;9.70;99.90;;;;;;5053917;28;20586;-73
2023/01/10 08:14:46;;;;;;;17.73;8.03;;;9.60;99.90;;;;;;5048764;28;20353;-74
2023/01/10 08:17:12;;;;;;;12.40;7.10;;;9.50;99.90;;;;;;5050672;28;20421;-73
2023/01/10 08:19:37;;;;;;;10.53;7.57;;;9.60;99.90;;;;;;5053122;28;20174;-74
2023/01/10 08:22:03;;;;;;;13.40;8.90;;;9.60;99.90;;;;;;5054024;28;20529;-85
2023/01/10 08:24:29;;;;;;;21.57;9.07;;;9.60;99.90;;;;;;5053297;28;20529;-73
2023/01/10 08:26:57;;;;;;;18.60;8.30;;;9.60;99.90;;;;;;5049708;28;20548;-73
2023/01/10 08:29:23;;;;;;;14.40;9.20;;;9.60;99.90;;;;;;5053494;28;20174;-73
2023/01/10 08:31:49;;;;;;;16.33;9.30;;;9.60;99.90;;;;;;5050279;28;20468;-73
2023/01/10 08:34:15;;;;;;;11.93;6.93;;;9.60;99.90;;;;;;5052533;28;20178;-73
2023/01/10 08:36:40;;;;;;;14.67;7.37;;;9.60;99.90;;;;;;5052009;28;20174;-73
2023/01/10 08:39:06;;;;;;;15.63;10.83;;;9.60;99.90;;;;;;5052176;28;20787;-73
2023/01/10 08:41:32;;;;;;;10.70;9.40;;;9.50;99.90;;;;;;5053014;28;20229;-73
2023/01/10 08:43:58;;;;;;;16.73;9.50;;;9.50;99.90;;;;;;5053568;28;20518;-72
2023/01/10 08:46:24;;;;;;;13.40;8.73;;;9.50;99.90;;;;;;5053580;28;20208;-70
2023/01/10 08:48:50;;;;;;;16.47;8.90;;;9.60;99.90;;;;;;5045365;28;20265;-71
2023/01/10 08:51:16;;;;;;;16.50;8.53;;;9.50;99.90;;;;;;5051241;28;20198;-70
2023/01/10 08:53:42;;;;;;;12.80;8.83;;;9.50;99.90;;;;;;5052476;28;20412;-70
2023/01/10 08:56:08;;;;;;;17.13;10.20;;;9.40;99.90;;;;;;5053671;28;20786;-71
2023/01/10 08:58:34;;;;;;;12.47;8.13;;;9.50;99.90;;;;;;5049819;28;20528;-70
2023/01/10 09:01:07;;;;;;;14.00;7.83;;;9.40;99.90;;;;;;5052385;28;20431;-70
2023/01/10 09:03:33;;;;;;;11.27;7.97;;;9.30;99.90;;;;;;5051856;28;20425;-70
2023/01/10 09:06:00;;;;;;;11.00;8.50;;;9.40;99.90;;;;;;5052917;28;20486;-70
2023/01/10 09:08:26;;;;;;;12.80;7.80;;;9.40;99.90;;;;;;5052789;28;20887;-70
2023/01/10 09:10:52;;;;;;;20.20;8.93;;;9.40;99.90;;;;;;5050172;28;20437;-70
2023/01/10 09:13:17;;;;;;;13.40;8.47;;;9.40;99.90;;;;;;5052936;28;20416;-70
2023/01/10 09:15:43;;;;;;;15.27;8.10;;;9.40;99.90;;;;;;5052303;28;20495;-70
2023/01/10 09:18:11;;;;;;;12.27;7.70;;;9.30;99.90;;;;;;5051840;28;20177;-70
2023/01/10 09:20:39;;;;;;;18.50;7.90;;;9.30;99.90;;;;;;5052057;28;20780;-71
2023/01/10 09:23:11;;;;;;;15.90;7.87;;;9.30;99.90;;;;;;5052777;28;20468;-70
2023/01/10 09:25:37;;;;;;;11.83;7.17;;;9.40;99.90;;;;;;5052269;28;20389;-71
2023/01/10 09:28:04;;;;;;;16.63;8.80;;;9.40;99.90;;;;;;5052815;28;20416;-70
2023/01/10 09:30:31;;;;;;;18.23;6.50;;;9.40;99.90;;;;;;5052506;28;20405;-77
2023/01/10 09:32:58;;;;;;;12.97;8.43;;;9.40;99.90;;;;;;5052683;28;20865;-70
2023/01/10 09:35:25;;;;;;;15.33;7.37;;;9.40;99.90;;;;;;5052833;28;20437;-70
2023/01/10 09:37:55;;;;;;;14.00;7.17;;;9.50;99.90;;;;;;5052150;28;20711;-70
2023/01/10 09:40:30;;;;;;;18.33;8.33;;;9.50;99.90;;;;;;5051222;28;20471;-70
2023/01/10 09:43:09;;;;;;;17.87;7.80;;;9.50;99.90;;;;;;5050142;28;20486;-70
2023/01/10 09:45:43;;;;;;;15.30;7.73;;;9.60;99.90;;;;;;5052025;28;20892;-71
2023/01/10 09:48:23;;;;;;;11.37;6.20;;;9.60;99.90;;;;;;5052306;28;20856;-70
2023/01/10 09:50:57;;;;;;;10.47;7.77;;;9.60;99.90;;;;;;5051222;28;20935;-70
2023/01/10 09:53:26;;;;;;;14.77;7.50;;;9.60;99.90;;;;;;5052220;28;20470;-70
2023/01/10 09:55:54;;;;;;;17.77;7.37;;;9.50;99.90;;;;;;5051643;28;20649;-70
2023/01/10 09:58:27;;;;;;;11.40;7.57;;;9.50;99.90;;;;;;5050023;28;20844;-70
2023/01/10 10:01:14;;;;;;;18.87;8.37;;;9.50;99.90;;;;;;5050881;28;20485;-70
2023/01/10 10:04:17;;;;;;;9.33;6.20;;;9.40;99.90;;;;;;5051743;28;20398;-70
2023/01/10 10:06:43;;;;;;;17.47;6.87;;;9.50;99.90;;;;;;5051826;28;20393;-70
2023/01/10 10:09:14;;;;;;;11.77;9.30;;;9.50;99.90;;;;;;5052328;28;20428;-70
2023/01/10 10:12:01;;;;;;;14.00;7.83;;;9.60;99.90;;;;;;5050667;28;20554;-70
2023/01/10 10:14:43;;;;;;;14.27;6.77;;;9.60;99.90;;;;;;5052419;28;20413;-70
2023/01/10 10:17:26;;;;;;;22.90;9.37;;;9.70;99.90;;;;;;5052349;28;20411;-70
2023/01/10 10:19:57;;;;;;;14.90;7.90;;;9.70;99.90;;;;;;5048594;28;20436;-70
2023/01/10 10:22:29;;;;;;;12.50;6.23;;;9.80;99.90;;;;;;5051424;28;20490;-71
2023/01/10 10:25:15;;;;;;;9.87;6.77;;;9.70;99.90;;;;;;5050410;28;20432;-70
2023/01/10 10:27:53;;;;;;;13.10;7.50;;;9.80;99.90;;;;;;5050212;28;20413;-70
2023/01/10 10:30:52;;;;;;;10.53;6.17;;;9.80;99.90;;;;;;5052045;28;20426;-70
2023/01/10 10:33:28;;;;;;;15.93;6.70;;;9.90;99.90;;;;;;5052639;28;20462;-70
2023/01/10 10:35:59;;;;;;;13.07;7.00;;;10.00;99.90;;;;;;5051866;28;20848;-70
2023/01/10 10:38:31;;;;;;;13.80;6.37;;;9.90;99.90;;;;;;5051840;28;20390;-70
2023/01/10 10:40:59;;;;;;;13.03;5.73;;;10.00;99.90;;;;;;5051669;28;20565;-70
2023/01/10 10:43:31;;;;;;;11.17;5.43;;;10.00;99.90;;;;;;5050775;28;20751;-70
2023/01/10 10:46:01;;;;;;;13.40;6.13;;;10.10;99.90;;;;;;5049341;28;20477;-70
2023/01/10 10:48:46;;;;;;;10.10;6.80;;;10.20;99.90;;;;;;5050942;28;20553;-70
2023/01/10 10:51:27;;;;;;;15.97;6.57;;;10.50;99.90;;;;;;5049669;28;20512;-71
2023/01/10 10:53:57;;;;;;;9.43;5.37;;;10.80;99.90;;;;;;5049974;28;20424;-71
2023/01/10 10:56:24;;;;;;;14.40;5.70;;;10.90;99.90;;;;;;5051703;28;20404;-71
2023/01/10 10:58:54;;;;;;;13.40;8.30;;;11.00;99.90;;;;;;5050114;28;20428;-71
2023/01/10 11:01:20;;;;;;;11.53;8.13;;;11.10;99.90;;;;;;5050379;28;21069;-71
2023/01/10 11:03:48;;;;;;;13.67;5.30;;;11.20;99.90;;;;;;5052540;28;20900;-71
2023/01/10 11:06:16;;;;;;;8.87;4.87;;;11.00;99.90;;;;;;5055652;28;20769;-71
2023/01/10 11:08:44;;;;;;;11.73;7.57;;;11.10;99.90;;;;;;5053496;28;20436;-71
2023/01/10 11:11:46;;;;;;;14.63;6.13;;;11.00;99.90;;;;;;5052803;28;20836;-71
2023/01/10 11:14:12;;;;;;;9.60;6.37;;;11.00;99.90;;;;;;5052561;28;20564;-71
2023/01/10 11:16:40;;;;;;;12.30;6.90;;;10.90;99.90;;;;;;5053306;28;20511;-71
2023/01/10 11:19:16;;;;;;;14.27;5.07;;;10.90;99.90;;;;;;5054094;28;20923;-71
2023/01/10 11:21:55;;;;;;;9.33;4.87;;;10.90;99.90;;;;;;5053440;28;20400;-72
2023/01/10 11:24:49;;;;;;;10.37;5.97;;;10.90;99.90;;;;;;5055311;28;20479;-71
2023/01/10 11:27:18;;;;;;;7.63;4.90;;;11.00;99.90;;;;;;5052886;28;20420;-71
2023/01/10 11:29:49;;;;;;;14.13;5.30;;;10.80;99.90;;;;;;5053217;28;20431;-71
2023/01/10 11:32:39;;;;;;;11.10;5.07;;;10.70;99.90;;;;;;5053661;28;20463;-73
2023/01/10 11:35:17;;;;;;;8.17;4.90;;;10.70;99.90;;;;;;5035031;28;20404;-71
2023/01/10 11:37:59;;;;;;;8.23;4.87;;;10.80;99.90;;;;;;5042996;28;20503;-71
2023/01/10 11:40:29;;;;;;;11.50;5.63;;;10.80;99.90;;;;;;5053097;28;20459;-71
2023/01/10 11:42:57;;;;;;;12.77;5.17;;;10.90;99.90;;;;;;5053940;28;20426;-71
2023/01/10 11:45:26;;;;;;;12.70;7.43;;;10.70;99.90;;;;;;5051761;28;20493;-71
2023/01/10 11:47:58;;;;;;;16.53;7.07;;;10.70;99.90;;;;;;5050989;28;20423;-71
2023/01/10 11:50:27;;;;;;;7.30;3.87;;;10.70;99.90;;;;;;5054708;28;20397;-71
2023/01/10 11:52:54;;;;;;;9.53;4.00;;;10.60;99.90;;;;;;5051681;28;20497;-72
2023/01/10 11:55:23;;;;;;;7.90;4.43;;;10.50;99.90;;;;;;5052730;28;20478;-71
2023/01/10 11:58:11;;;;;;;13.77;4.30;;;10.60;99.90;;;;;;5052161;28;20408;-71
2023/01/10 12:00:47;;;;;;;8.77;5.53;;;10.40;99.90;;;;;;5054269;28;20886;-71
2023/01/10 12:03:38;;;;;;;8.33;3.70;;;10.50;99.90;;;;;;5053308;28;20431;-71
2023/01/10 12:06:06;;;;;;;10.57;4.57;;;10.50;99.90;;;;;;5052614;28;20426;-71
2023/01/10 12:08:38;;;;;;;7.20;4.20;;;10.50;99.90;;;;;;5053031;28;20423;-71
2023/01/10 12:11:15;;;;;;;12.80;5.17;;;10.50;99.90;;;;;;5053353;28;20513;-72
2023/01/10 12:13:49;;;;;;;8.33;4.53;;;10.50;99.90;;;;;;5052016;28;20433;-72
2023/01/10 12:16:34;;;;;;;11.63;4.50;;;10.50;99.90;;;;;;5052220;28;20782;-71
2023/01/10 12:19:03;;;;;;;10.93;4.20;;;10.50;99.90;;;;;;5052354;28;20516;-71
2023/01/10 12:21:39;;;;;;;10.13;4.57;;;10.50;99.90;;;;;;5054029;28;20431;-71
2023/01/10 12:24:32;;;;;;;12.80;4.13;;;10.40;99.90;;;;;;5051447;28;20465;-71
2023/01/10 12:27:01;;;;;;;14.57;5.07;;;10.50;99.90;;;;;;5051211;28;20438;-71
2023/01/10 12:29:31;;;;;;;7.80;3.60;;;10.60;99.90;;;;;;5052802;28;20431;-71
2023/01/10 12:31:59;;;;;;;6.13;4.37;;;10.30;99.90;;;;;;5051091;28;20540;-75
2023/01/10 12:34:38;;;;;;;5.97;3.90;;;10.30;99.90;;;;;;5041699;28;20427;-71
2023/01/10 12:37:07;;;;;;;12.93;4.50;;;10.40;99.90;;;;;;5050832;28;20427;-71
2023/01/10 12:39:40;;;;;;;7.97;4.13;;;10.30;99.90;;;;;;5051459;28;20467;-71
2023/01/10 12:45:18;;;;;;;4.93;3.30;;;10.40;99.90;;;;;;5053049;28;20418;-71
2023/01/10 12:48:08;;;;;;;9.37;4.60;;;10.40;99.90;;;;;;5051943;28;20435;-71
2023/01/10 12:50:42;;;;;;;12.30;5.40;;;10.30;99.90;;;;;;5050943;28;20925;-72
2023/01/10 12:53:10;;;;;;;9.13;6.10;;;10.20;99.90;;;;;;5052134;28;20966;-71
2023/01/10 12:55:41;;;;;;;6.90;4.63;;;10.20;99.90;;;;;;5053125;28;20421;-71
2023/01/10 12:58:26;;;;;;;8.20;6.13;;;10.20;99.90;;;;;;5050246;28;20491;-71
2023/01/10 13:00:56;;;;;;;9.60;4.60;;;10.20;99.90;;;;;;5050300;28;20431;-71
2023/01/10 13:03:29;;;;;;;8.97;3.63;;;10.10;99.90;;;;;;5053301;28;20404;-71
2023/01/10 13:05:57;;;;;;;10.40;4.37;;;10.10;99.90;;;;;;5051110;28;20530;-71
2023/01/10 13:08:26;;;;;;;9.97;5.77;;;10.10;99.90;;;;;;5050677;28;20513;-72
2023/01/10 13:10:56;;;;;;;8.60;3.80;;;10.00;99.90;;;;;;5052638;28;20431;-71
2023/01/10 13:13:45;;;;;;;12.03;5.63;;;10.00;99.90;;;;;;5051780;28;20427;-71
2023/01/10 13:16:39;;;;;;;9.50;6.10;;;10.10;99.90;;;;;;5050663;28;20559;-72